Terminal Aerodrome Forecast
Issued by NWS Binghamton, NY

Home | Current Version | Previous Version | Text Only | Print | Product List | Glossary On
Versions: 1 2 3 4 5 6 7 8 9 10 11 12 13 14 15 16 17 18 19 20 21 22 23 24
000
FTUS41 KBGM 031123
TAFBGM
TAF
KBGM 031123Z 0312/0412 VRB03KT 2SM BR SCT005
     FM031330 31005KT 3SM BR SCT005
     FM031400 34005KT P6SM SCT025 BKN250
     FM040500 04005KT 5SM BR SCT025 BKN120
     FM040700 04004KT 1 1/2SM BR BKN007=

USA.gov is the U.S. government's official web portal to all federal, state and local government web resources and services.